Buoy 62726

sailwx.info

Track history (hours):
 
Tides and Currents Weather Stations Pressure Air Temp Water Temp Dewpoint Dewpoint Depression Visibility Wind Speed Wind Dir Waves Ship Positions

Drifting buoy 62726

Last reported at 2014-Aug-01 18:00 UTC. Time now 2014-Aug-01 22:33 UTC.
Position N 39°01' W 014°52'.

Water temperature 20.9 ° C

Date/timePositionNaut miles runAvg speedWind from/ knotsBaromVisibWave heightAir tempDewpointWater temp
2014-Aug-01 18:00N 39°01' W 014°52'0 0.2 20.9
2014-Aug-01 17:00N 39°01' W 014°52'0 0.0 20.9
2014-Aug-01 16:00N 39°01' W 014°52'0 0.3 20.9
2014-Aug-01 15:00N 39°01' W 014°51'0 0.0 20.9
2014-Aug-01 13:00N 39°01' W 014°51'0 0.2 20.9
2014-Aug-01 12:00N 39°01' W 014°52'0 0.5 20.8
2014-Aug-01 11:00N 39°02' W 014°52'0 0.0 20.8
2014-Aug-01 10:00N 39°02' W 014°52'1 0.3 20.7
2014-Aug-01 07:00N 39°01' W 014°52'0 0.1 20.6
2014-Aug-01 05:00N 39°01' W 014°52'0 0.0 20.7
2014-Aug-01 03:00N 39°01' W 014°52'1 0.2 20.7
2014-Jul-31 23:00N 38°60' W 014°51'0 0.4 20.7
2014-Jul-31 22:00N 39°00' W 014°51'1 0.5 20.7
2014-Jul-31 21:00N 39°00' W 014°50'0 0.0 20.7
2014-Jul-31 20:00N 39°00' W 014°50'0 0.0 20.7
2014-Jul-31 17:00N 39°00' W 014°50'0 0.2 20.7
2014-Jul-31 16:00N 39°00' W 014°51'0 0.0 20.7
2014-Jul-31 15:00N 39°00' W 014°51'1 0.5 20.7
2014-Jul-31 13:00N 38°60' W 014°51'1 0.2 20.7
2014-Jul-31 10:00N 38°59' W 014°51'1 0.4 20.6
2014-Jul-31 08:00N 38°59' W 014°50'0 0.2 20.6
2014-Jul-31 07:00N 38°59' W 014°50'0 0.3 20.6
2014-Jul-31 06:00N 38°59' W 014°49'0 0.4 20.6
2014-Jul-31 05:00N 38°59' W 014°49'0 0.3 20.6
2014-Jul-31 04:00N 38°59' W 014°49'0 0.0 20.6
2014-Jul-31 03:00N 38°59' W 014°49'0 0.2 20.6
2014-Jul-31 01:00N 38°59' W 014°49'1 0.2 20.6
2014-Jul-30 20:00N 38°59' W 014°48'0 0.2 20.6
2014-Jul-30 18:00N 38°59' W 014°48'0 0.1 20.7
2014-Jul-30 16:00N 38°59' W 014°49'0 0.3 20.7
2014-Jul-30 15:00N 38°59' W 014°48'1 0.7 20.7
2014-Jul-30 13:00N 38°58' W 014°47'0 0.0 20.7
2014-Jul-30 12:00N 38°58' W 014°47'0 0.0 20.6
2014-Jul-30 11:00N 38°58' W 014°47'0 0.0 20.6
2014-Jul-30 10:00N 38°58' W 014°47'1 0.4 20.6
2014-Jul-30 07:00N 38°59' W 014°45'0 0.1 20.6
2014-Jul-30 05:00N 38°59' W 014°45'0 0.1 20.6
2014-Jul-30 01:00N 38°59' W 014°45'0 0.1 20.6
2014-Jul-29 22:00N 38°59' W 014°45'1 0.8 20.6
2014-Jul-29 21:00N 38°58' W 014°45'1 0.2 20.7
2014-Jul-29 17:00N 38°58' W 014°44'0 0.1 20.7
2014-Jul-29 16:00N 38°58' W 014°44'1 0.6 20.7
2014-Jul-29 15:00N 38°58' W 014°43'1 0.4 20.7
2014-Jul-29 12:00N 38°58' W 014°42'0 0.0 20.7
2014-Jul-29 11:00N 38°58' W 014°42'0 0.2 20.6
2014-Jul-29 09:00N 38°58' W 014°41'0 0.0 20.6
2014-Jul-29 08:00N 38°58' W 014°41'0 0.0 20.6
2014-Jul-29 04:00N 38°58' W 014°41'0 0.0 20.6
2014-Jul-29 03:00N 38°58' W 014°41'2 0.5 20.7
2014-Jul-28 23:00N 38°57' W 014°39'0 0.4 20.7
2014-Jul-28 22:00N 38°57' W 014°39'0 0.0 20.7
2014-Jul-28 21:00N 38°57' W 014°39'0 0.2 20.7
2014-Jul-28 19:00N 38°57' W 014°39'0 0.0 20.8
2014-Jul-28 18:00N 38°57' W 014°39'0 0.2 20.8
2014-Jul-28 17:00N 38°56' W 014°39'1 0.1 20.8
2014-Jul-28 12:00N 38°57' W 014°38'0 0.0 20.7
2014-Jul-28 11:00N 38°57' W 014°38'1 0.9 20.7
2014-Jul-28 10:00N 38°56' W 014°37'2 0.3 20.7
2014-Jul-28 05:00N 38°55' W 014°36'0 0.0 20.7
2014-Jul-28 04:00N 38°55' W 014°36'1 0.2 20.7
2014-Jul-28 01:00N 38°54' W 014°35'1 0.3 20.7
2014-Jul-27 22:00N 38°55' W 014°35'0 0.1 20.7
2014-Jul-27 21:00N 38°55' W 014°34'0 0.1 20.7
2014-Jul-27 19:00N 38°55' W 014°34'1 0.5 20.8
2014-Jul-27 16:00N 38°55' W 014°36'0 0.0 20.8
2014-Jul-27 14:00N 38°55' W 014°36'2 0.8 20.7
2014-Jul-27 12:00N 38°54' W 014°34'0 0.0 20.7
2014-Jul-27 11:00N 38°54' W 014°34'1 0.2 20.7
2014-Jul-27 08:00N 38°53' W 014°34'0 0.1 20.7
2014-Jul-27 07:00N 38°53' W 014°33'1 0.7 20.7
2014-Jul-27 06:00N 38°53' W 014°33'0 0.4 20.7
2014-Jul-27 05:00N 38°54' W 014°33'1 0.6 20.7
2014-Jul-27 04:00N 38°54' W 014°33'0 0.0 20.8
2014-Jul-27 01:00N 38°54' W 014°33'0 0.1 20.8
2014-Jul-26 23:00N 38°54' W 014°34'0 0.0 20.8
2014-Jul-26 22:00N 38°54' W 014°34'0 0.1 20.8
2014-Jul-26 20:00N 38°54' W 014°33'2 0.8 20.8
2014-Jul-26 18:00N 38°52' W 014°33'0 0.0 20.9
2014-Jul-26 16:00N 38°52' W 014°33'0 0.4 20.9
2014-Jul-26 15:00N 38°52' W 014°33'0 0.0 20.9
2014-Jul-26 14:00N 38°52' W 014°33'0 0.4 20.9
2014-Jul-26 13:00N 38°51' W 014°32'1 0.8 20.8
2014-Jul-26 12:00N 38°51' W 014°31'1 0.3 20.7
2014-Jul-26 10:00N 38°52' W 014°31'0 0.1 20.7
2014-Jul-26 06:00N 38°52' W 014°31'0 0.2 20.7
2014-Jul-26 04:00N 38°52' W 014°32'0 0.0 20.7
2014-Jul-26 03:00N 38°52' W 014°32'2 0.7 20.7
2014-Jul-26 00:00N 38°50' W 014°32'0 0.0 20.8
2014-Jul-25 22:00N 38°50' W 014°32'1 0.5 20.9
2014-Jul-25 20:00N 38°49' W 014°31'0 0.0 20.9
2014-Jul-25 19:00N 38°49' W 014°31'1 0.7 21.0
2014-Jul-25 18:00N 38°50' W 014°30'0 0.2 20.9
2014-Jul-25 16:00N 38°50' W 014°30'0 0.2 21.0
2014-Jul-25 15:00N 38°50' W 014°30'0 0.0 21.0
2014-Jul-25 14:00N 38°50' W 014°30'1 0.4 20.9
2014-Jul-25 12:00N 38°50' W 014°31'0 0.0 20.8
2014-Jul-25 11:00N 38°50' W 014°31'0 0.0 20.7
2014-Jul-25 10:00N 38°50' W 014°31'1 0.2 20.6
2014-Jul-25 07:00N 38°49' W 014°31'0 0.2 20.6
2014-Jul-25 05:00N 38°49' W 014°31'0 0.4 20.6
2014-Jul-25 04:00N 38°49' W 014°31'0 0.0 20.6
2014-Jul-25 03:00N 38°49' W 014°31'1 1.3 20.6
2014-Jul-25 02:00N 38°48' W 014°30'0 0.0 20.6
2014-Jul-25 01:00N 38°48' W 014°30'0 0.0 20.6
2014-Jul-25 00:00N 38°48' W 014°30'0 0.1 20.7
2014-Jul-24 21:00N 38°48' W 014°30'2 0.8 20.7
2014-Jul-24 19:00N 38°48' W 014°27'0 0.0 20.7
2014-Jul-24 18:00N 38°48' W 014°27'1 0.9 20.8
2014-Jul-24 17:00N 38°49' W 014°28'0 0.0 20.8
2014-Jul-24 16:00N 38°49' W 014°28'0 0.0 20.8
2014-Jul-24 15:00N 38°49' W 014°28'2 0.7 20.8
2014-Jul-24 12:00N 38°48' W 014°30'0 0.0 20.6
2014-Jul-24 11:00N 38°48' W 014°30'2 1.9 20.5
2014-Jul-24 10:00N 38°47' W 014°29'0 0.0 20.5
2014-Jul-24 09:00N 38°47' W 014°29'1 0.3 20.5
2014-Jul-24 07:00N 38°46' W 014°28'0 0.0 20.5
2014-Jul-24 06:00N 38°46' W 014°28'1 0.7 20.5
2014-Jul-24 04:00N 38°47' W 014°27'0 0.0 20.5
2014-Jul-24 00:00N 38°47' W 014°27'0 0.0 20.7
2014-Jul-23 23:00N 38°47' W 014°27'0 0.2 20.7
2014-Jul-23 22:00N 38°47' W 014°27'0 0.5 20.7
2014-Jul-23 21:00N 38°47' W 014°27'0 0.0 20.8
2014-Jul-23 20:00N 38°47' W 014°27'1 0.3 20.8
2014-Jul-23 17:00N 38°46' W 014°27'0 0.0 20.8
2014-Jul-23 16:00N 38°46' W 014°27'1 0.2 20.8
2014-Jul-23 13:00N 38°47' W 014°27'1 0.8 20.9
2014-Jul-23 12:00N 38°46' W 014°27'0 0.0 20.8
2014-Jul-23 09:00N 38°46' W 014°27'0 0.2 20.7
2014-Jul-23 07:00N 38°46' W 014°26'0 0.2 20.6
2014-Jul-23 06:00N 38°46' W 014°26'1 1.2 20.6
2014-Jul-23 05:00N 38°46' W 014°28'0 0.0 20.6
2014-Jul-23 04:00N 38°46' W 014°28'0 0.0 20.7
2014-Jul-22 22:00N 38°46' W 014°28'2 0.4 20.6
2014-Jul-22 18:00N 38°45' W 014°26'   20.9
Track history (hours):
 
Tides and Currents Weather Stations Pressure Air Temp Water Temp Dewpoint Dewpoint Depression Visibility Wind Speed Wind Dir Waves Ship Positions

Drifting buoy 62726

Last reported at 2014-Aug-01 18:00 UTC. Time now 2014-Aug-01 22:33 UTC.
Position N 39°01' W 014°52'.

Water temperature 20.9 ° C

Date/timePositionNaut miles runAvg speedWind from/ knotsBaromVisibWave heightAir tempDewpointWater temp
2014-Aug-01 18:00N 39°01' W 014°52'0 0.2 20.9
2014-Aug-01 17:00N 39°01' W 014°52'0 0.0 20.9
2014-Aug-01 16:00N 39°01' W 014°52'0 0.3 20.9
2014-Aug-01 15:00N 39°01' W 014°51'0 0.0 20.9
2014-Aug-01 13:00N 39°01' W 014°51'0 0.2 20.9
2014-Aug-01 12:00N 39°01' W 014°52'0 0.5 20.8
2014-Aug-01 11:00N 39°02' W 014°52'0 0.0 20.8
2014-Aug-01 10:00N 39°02' W 014°52'1 0.3 20.7
2014-Aug-01 07:00N 39°01' W 014°52'0 0.1 20.6
2014-Aug-01 05:00N 39°01' W 014°52'0 0.0 20.7
2014-Aug-01 03:00N 39°01' W 014°52'1 0.2 20.7
2014-Jul-31 23:00N 38°60' W 014°51'0 0.4 20.7
2014-Jul-31 22:00N 39°00' W 014°51'1 0.5 20.7
2014-Jul-31 21:00N 39°00' W 014°50'0 0.0 20.7
2014-Jul-31 20:00N 39°00' W 014°50'0 0.0 20.7
2014-Jul-31 17:00N 39°00' W 014°50'0 0.2 20.7
2014-Jul-31 16:00N 39°00' W 014°51'0 0.0 20.7
2014-Jul-31 15:00N 39°00' W 014°51'1 0.5 20.7
2014-Jul-31 13:00N 38°60' W 014°51'1 0.2 20.7
2014-Jul-31 10:00N 38°59' W 014°51'1 0.4 20.6
2014-Jul-31 08:00N 38°59' W 014°50'0 0.2 20.6
2014-Jul-31 07:00N 38°59' W 014°50'0 0.3 20.6
2014-Jul-31 06:00N 38°59' W 014°49'0 0.4 20.6
2014-Jul-31 05:00N 38°59' W 014°49'0 0.3 20.6
2014-Jul-31 04:00N 38°59' W 014°49'0 0.0 20.6
2014-Jul-31 03:00N 38°59' W 014°49'0 0.2 20.6
2014-Jul-31 01:00N 38°59' W 014°49'1 0.2 20.6
2014-Jul-30 20:00N 38°59' W 014°48'0 0.2 20.6
2014-Jul-30 18:00N 38°59' W 014°48'0 0.1 20.7
2014-Jul-30 16:00N 38°59' W 014°49'0 0.3 20.7
2014-Jul-30 15:00N 38°59' W 014°48'1 0.7 20.7
2014-Jul-30 13:00N 38°58' W 014°47'0 0.0 20.7
2014-Jul-30 12:00N 38°58' W 014°47'0 0.0 20.6
2014-Jul-30 11:00N 38°58' W 014°47'0 0.0 20.6
2014-Jul-30 10:00N 38°58' W 014°47'1 0.4 20.6
2014-Jul-30 07:00N 38°59' W 014°45'0 0.1 20.6
2014-Jul-30 05:00N 38°59' W 014°45'0 0.1 20.6
2014-Jul-30 01:00N 38°59' W 014°45'0 0.1 20.6
2014-Jul-29 22:00N 38°59' W 014°45'1 0.8 20.6
2014-Jul-29 21:00N 38°58' W 014°45'1 0.2 20.7
2014-Jul-29 17:00N 38°58' W 014°44'0 0.1 20.7
2014-Jul-29 16:00N 38°58' W 014°44'1 0.6 20.7
2014-Jul-29 15:00N 38°58' W 014°43'1 0.4 20.7
2014-Jul-29 12:00N 38°58' W 014°42'0 0.0 20.7
2014-Jul-29 11:00N 38°58' W 014°42'0 0.2 20.6
2014-Jul-29 09:00N 38°58' W 014°41'0 0.0 20.6
2014-Jul-29 08:00N 38°58' W 014°41'0 0.0 20.6
2014-Jul-29 04:00N 38°58' W 014°41'0 0.0 20.6
2014-Jul-29 03:00N 38°58' W 014°41'2 0.5 20.7
2014-Jul-28 23:00N 38°57' W 014°39'0 0.4 20.7
2014-Jul-28 22:00N 38°57' W 014°39'0 0.0 20.7
2014-Jul-28 21:00N 38°57' W 014°39'0 0.2 20.7
2014-Jul-28 19:00N 38°57' W 014°39'0 0.0 20.8
2014-Jul-28 18:00N 38°57' W 014°39'0 0.2 20.8
2014-Jul-28 17:00N 38°56' W 014°39'1 0.1 20.8
2014-Jul-28 12:00N 38°57' W 014°38'0 0.0 20.7
2014-Jul-28 11:00N 38°57' W 014°38'1 0.9 20.7
2014-Jul-28 10:00N 38°56' W 014°37'2 0.3 20.7
2014-Jul-28 05:00N 38°55' W 014°36'0 0.0 20.7
2014-Jul-28 04:00N 38°55' W 014°36'1 0.2 20.7
2014-Jul-28 01:00N 38°54' W 014°35'1 0.3 20.7
2014-Jul-27 22:00N 38°55' W 014°35'0 0.1 20.7
2014-Jul-27 21:00N 38°55' W 014°34'0 0.1 20.7
2014-Jul-27 19:00N 38°55' W 014°34'1 0.5 20.8
2014-Jul-27 16:00N 38°55' W 014°36'0 0.0 20.8
2014-Jul-27 14:00N 38°55' W 014°36'2 0.8 20.7
2014-Jul-27 12:00N 38°54' W 014°34'0 0.0 20.7
2014-Jul-27 11:00N 38°54' W 014°34'1 0.2 20.7
2014-Jul-27 08:00N 38°53' W 014°34'0 0.1 20.7
2014-Jul-27 07:00N 38°53' W 014°33'1 0.7 20.7
2014-Jul-27 06:00N 38°53' W 014°33'0 0.4 20.7
2014-Jul-27 05:00N 38°54' W 014°33'1 0.6 20.7
2014-Jul-27 04:00N 38°54' W 014°33'0 0.0 20.8
2014-Jul-27 01:00N 38°54' W 014°33'0 0.1 20.8
2014-Jul-26 23:00N 38°54' W 014°34'0 0.0 20.8
2014-Jul-26 22:00N 38°54' W 014°34'0 0.1 20.8
2014-Jul-26 20:00N 38°54' W 014°33'2 0.8 20.8
2014-Jul-26 18:00N 38°52' W 014°33'0 0.0 20.9
2014-Jul-26 16:00N 38°52' W 014°33'0 0.4 20.9
2014-Jul-26 15:00N 38°52' W 014°33'0 0.0 20.9
2014-Jul-26 14:00N 38°52' W 014°33'0 0.4 20.9
2014-Jul-26 13:00N 38°51' W 014°32'1 0.8 20.8
2014-Jul-26 12:00N 38°51' W 014°31'1 0.3 20.7
2014-Jul-26 10:00N 38°52' W 014°31'0 0.1 20.7
2014-Jul-26 06:00N 38°52' W 014°31'0 0.2 20.7
2014-Jul-26 04:00N 38°52' W 014°32'0 0.0 20.7
2014-Jul-26 03:00N 38°52' W 014°32'2 0.7 20.7
2014-Jul-26 00:00N 38°50' W 014°32'0 0.0 20.8
2014-Jul-25 22:00N 38°50' W 014°32'1 0.5 20.9
2014-Jul-25 20:00N 38°49' W 014°31'0 0.0 20.9
2014-Jul-25 19:00N 38°49' W 014°31'1 0.7 21.0
2014-Jul-25 18:00N 38°50' W 014°30'0 0.2 20.9
2014-Jul-25 16:00N 38°50' W 014°30'0 0.2 21.0
2014-Jul-25 15:00N 38°50' W 014°30'0 0.0 21.0
2014-Jul-25 14:00N 38°50' W 014°30'1 0.4 20.9
2014-Jul-25 12:00N 38°50' W 014°31'0 0.0 20.8
2014-Jul-25 11:00N 38°50' W 014°31'0 0.0 20.7
2014-Jul-25 10:00N 38°50' W 014°31'1 0.2 20.6
2014-Jul-25 07:00N 38°49' W 014°31'0 0.2 20.6
2014-Jul-25 05:00N 38°49' W 014°31'0 0.4 20.6
2014-Jul-25 04:00N 38°49' W 014°31'0 0.0 20.6
2014-Jul-25 03:00N 38°49' W 014°31'1 1.3 20.6
2014-Jul-25 02:00N 38°48' W 014°30'0 0.0 20.6
2014-Jul-25 01:00N 38°48' W 014°30'0 0.0 20.6
2014-Jul-25 00:00N 38°48' W 014°30'0 0.1 20.7
2014-Jul-24 21:00N 38°48' W 014°30'2 0.8 20.7
2014-Jul-24 19:00N 38°48' W 014°27'0 0.0 20.7
2014-Jul-24 18:00N 38°48' W 014°27'1 0.9 20.8
2014-Jul-24 17:00N 38°49' W 014°28'0 0.0 20.8
2014-Jul-24 16:00N 38°49' W 014°28'0 0.0 20.8
2014-Jul-24 15:00N 38°49' W 014°28'2 0.7 20.8
2014-Jul-24 12:00N 38°48' W 014°30'0 0.0 20.6
2014-Jul-24 11:00N 38°48' W 014°30'2 1.9 20.5
2014-Jul-24 10:00N 38°47' W 014°29'0 0.0 20.5
2014-Jul-24 09:00N 38°47' W 014°29'1 0.3 20.5
2014-Jul-24 07:00N 38°46' W 014°28'0 0.0 20.5
2014-Jul-24 06:00N 38°46' W 014°28'1 0.7 20.5
2014-Jul-24 04:00N 38°47' W 014°27'0 0.0 20.5
2014-Jul-24 00:00N 38°47' W 014°27'0 0.0 20.7
2014-Jul-23 23:00N 38°47' W 014°27'0 0.2 20.7
2014-Jul-23 22:00N 38°47' W 014°27'0 0.5 20.7
2014-Jul-23 21:00N 38°47' W 014°27'0 0.0 20.8
2014-Jul-23 20:00N 38°47' W 014°27'1 0.3 20.8
2014-Jul-23 17:00N 38°46' W 014°27'0 0.0 20.8
2014-Jul-23 16:00N 38°46' W 014°27'1 0.2 20.8
2014-Jul-23 13:00N 38°47' W 014°27'1 0.8 20.9
2014-Jul-23 12:00N 38°46' W 014°27'0 0.0 20.8
2014-Jul-23 09:00N 38°46' W 014°27'0 0.2 20.7
2014-Jul-23 07:00N 38°46' W 014°26'0 0.2 20.6
2014-Jul-23 06:00N 38°46' W 014°26'1 1.2 20.6
2014-Jul-23 05:00N 38°46' W 014°28'0 0.0 20.6
2014-Jul-23 04:00N 38°46' W 014°28'0 0.0 20.7
2014-Jul-22 22:00N 38°46' W 014°28'2 0.4 20.6
2014-Jul-22 18:00N 38°45' W 014°26'   20.9

Dump ship's entire track history